sensor_id;sensor_type;location;lat;lon;timestamp;pressure;altitude;pressure_sealevel;temperature;humidity
39105;BME280;46464;51.154;13.812;2023-01-26T00:01:24;99973.34;;;-0.44;100.00
39105;BME280;46464;51.154;13.812;2023-01-26T00:03:54;99970.69;;;-0.44;100.00
39105;BME280;46464;51.154;13.812;2023-01-26T00:06:21;99968.91;;;-0.46;100.00
39105;BME280;46464;51.154;13.812;2023-01-26T00:08:48;99976.88;;;-0.42;100.00
39105;BME280;46464;51.154;13.812;2023-01-26T00:11:17;99975.06;;;-0.47;100.00
39105;BME280;46464;51.154;13.812;2023-01-26T00:13:44;99965.41;;;-0.45;100.00
39105;BME280;46464;51.154;13.812;2023-01-26T00:16:11;99956.59;;;-0.46;100.00
39105;BME280;46464;51.154;13.812;2023-01-26T00:18:38;99963.63;;;-0.46;100.00
39105;BME280;46464;51.154;13.812;2023-01-26T00:21:05;99969.81;;;-0.44;100.00
39105;BME280;46464;51.154;13.812;2023-01-26T00:23:32;99969.81;;;-0.43;100.00
39105;BME280;46464;51.154;13.812;2023-01-26T00:25:59;99972.47;;;-0.41;100.00
39105;BME280;46464;51.154;13.812;2023-01-26T00:28:26;99969.81;;;-0.43;100.00
39105;BME280;46464;51.154;13.812;2023-01-26T00:30:52;99965.41;;;-0.44;100.00
39105;BME280;46464;51.154;13.812;2023-01-26T00:33:18;99957.50;;;-0.42;100.00
39105;BME280;46464;51.154;13.812;2023-01-26T00:35:52;99958.44;;;-0.33;100.00
39105;BME280;46464;51.154;13.812;2023-01-26T00:38:18;99947.88;;;-0.37;100.00
39105;BME280;46464;51.154;13.812;2023-01-26T00:40:45;99950.53;;;-0.37;100.00
39105;BME280;46464;51.154;13.812;2023-01-26T00:43:11;99941.69;;;-0.41;100.00
39105;BME280;46464;51.154;13.812;2023-01-26T00:45:37;99947.84;;;-0.42;100.00
39105;BME280;46464;51.154;13.812;2023-01-26T00:48:04;99952.25;;;-0.38;100.00
39105;BME280;46464;51.154;13.812;2023-01-26T00:50:31;99950.47;;;-0.40;100.00
39105;BME280;46464;51.154;13.812;2023-01-26T00:52:58;99952.22;;;-0.42;100.00
39105;BME280;46464;51.154;13.812;2023-01-26T00:55:25;99951.34;;;-0.44;100.00
39105;BME280;46464;51.154;13.812;2023-01-26T00:57:58;99948.72;;;-0.43;100.00
39105;BME280;46464;51.154;13.812;2023-01-26T01:00:24;99947.84;;;-0.43;100.00
39105;BME280;46464;51.154;13.812;2023-01-26T01:02:51;99943.44;;;-0.40;100.00
39105;BME280;46464;51.154;13.812;2023-01-26T01:05:17;99939.03;;;-0.42;100.00
39105;BME280;46464;51.154;13.812;2023-01-26T01:07:44;99936.38;;;-0.44;100.00
39105;BME280;46464;51.154;13.812;2023-01-26T01:10:10;99934.59;;;-0.45;100.00
39105;BME280;46464;51.154;13.812;2023-01-26T01:12:37;99936.41;;;-0.41;100.00
39105;BME280;46464;51.154;13.812;2023-01-26T01:15:03;99937.25;;;-0.45;100.00
39105;BME280;46464;51.154;13.812;2023-01-26T01:17:29;99934.63;;;-0.43;100.00
39105;BME280;46464;51.154;13.812;2023-01-26T01:19:56;99940.78;;;-0.43;100.00
39105;BME280;46464;51.154;13.812;2023-01-26T01:22:22;99935.50;;;-0.41;100.00
39105;BME280;46464;51.154;13.812;2023-01-26T01:24:49;99932.88;;;-0.44;100.00
39105;BME280;46464;51.154;13.812;2023-01-26T01:27:15;99937.25;;;-0.46;100.00
39105;BME280;46464;51.154;13.812;2023-01-26T01:29:41;99931.97;;;-0.46;100.00
39105;BME280;46464;51.154;13.812;2023-01-26T01:32:08;99938.09;;;-0.46;100.00
39105;BME280;46464;51.154;13.812;2023-01-26T01:34:34;99935.47;;;-0.49;100.00
39105;BME280;46464;51.154;13.812;2023-01-26T01:37:00;99936.34;;;-0.49;100.00
39105;BME280;46464;51.154;13.812;2023-01-26T01:39:27;99930.16;;;-0.52;100.00
39105;BME280;46464;51.154;13.812;2023-01-26T01:41:53;99931.06;;;-0.52;100.00
39105;BME280;46464;51.154;13.812;2023-01-26T01:44:21;99927.50;;;-0.52;100.00
39105;BME280;46464;51.154;13.812;2023-01-26T01:46:50;99922.22;;;-0.54;100.00
39105;BME280;46464;51.154;13.812;2023-01-26T01:49:28;99916.09;;;-0.54;100.00
39105;BME280;46464;51.154;13.812;2023-01-26T01:52:07;99913.41;;;-0.57;100.00
39105;BME280;46464;51.154;13.812;2023-01-26T01:54:39;99902.88;;;-0.54;100.00
39105;BME280;46464;51.154;13.812;2023-01-26T01:57:08;99905.53;;;-0.56;100.00
39105;BME280;46464;51.154;13.812;2023-01-26T01:59:45;99901.97;;;-0.58;100.00
39105;BME280;46464;51.154;13.812;2023-01-26T02:02:14;99903.75;;;-0.57;100.00
39105;BME280;46464;51.154;13.812;2023-01-26T02:04:40;99899.34;;;-0.55;100.00
39105;BME280;46464;51.154;13.812;2023-01-26T02:07:07;99896.75;;;-0.53;100.00
39105;BME280;46464;51.154;13.812;2023-01-26T02:09:36;99895.84;;;-0.55;100.00
39105;BME280;46464;51.154;13.812;2023-01-26T02:12:23;99888.81;;;-0.53;100.00
39105;BME280;46464;51.154;13.812;2023-01-26T02:14:51;99891.47;;;-0.50;100.00
39105;BME280;46464;51.154;13.812;2023-01-26T02:17:18;99881.78;;;-0.54;100.00
39105;BME280;46464;51.154;13.812;2023-01-26T02:28:01;99868.63;;;-0.50;100.00
39105;BME280;46464;51.154;13.812;2023-01-26T02:30:27;99869.44;;;-0.52;100.00
39105;BME280;46464;51.154;13.812;2023-01-26T02:32:54;99859.78;;;-0.52;100.00
39105;BME280;46464;51.154;13.812;2023-01-26T02:35:20;99863.31;;;-0.53;100.00
39105;BME280;46464;51.154;13.812;2023-01-26T02:37:47;99856.28;;;-0.51;100.00
39105;BME280;46464;51.154;13.812;2023-01-26T02:40:29;99842.22;;;-0.50;100.00
39105;BME280;46464;51.154;13.812;2023-01-26T02:42:57;99845.69;;;-0.54;100.00
39105;BME280;46464;51.154;13.812;2023-01-26T02:45:23;99842.16;;;-0.59;100.00
39105;BME280;46464;51.154;13.812;2023-01-26T02:47:51;99842.19;;;-0.56;100.00
39105;BME280;46464;51.154;13.812;2023-01-26T02:50:17;99835.09;;;-0.60;100.00
39105;BME280;46464;51.154;13.812;2023-01-26T02:52:44;99837.75;;;-0.60;100.00
39105;BME280;46464;51.154;13.812;2023-01-26T02:55:10;99825.44;;;-0.62;100.00
39105;BME280;46464;51.154;13.812;2023-01-26T02:57:54;99825.44;;;-0.62;100.00
39105;BME280;46464;51.154;13.812;2023-01-26T03:00:23;99828.06;;;-0.66;100.00
39105;BME280;46464;51.154;13.812;2023-01-26T03:02:50;99830.69;;;-0.64;100.00
39105;BME280;46464;51.154;13.812;2023-01-26T03:05:17;99832.47;;;-0.63;100.00
39105;BME280;46464;51.154;13.812;2023-01-26T03:07:44;99829.88;;;-0.57;100.00
39105;BME280;46464;51.154;13.812;2023-01-26T03:10:11;99830.69;;;-0.61;100.00
39105;BME280;46464;51.154;13.812;2023-01-26T03:12:38;99833.38;;;-0.58;100.00
39105;BME280;46464;51.154;13.812;2023-01-26T03:18:33;99819.28;;;-0.58;100.00
39105;BME280;46464;51.154;13.812;2023-01-26T03:21:19;99823.66;;;-0.65;100.00
39105;BME280;46464;51.154;13.812;2023-01-26T03:24:04;99813.09;;;-0.65;100.00
39105;BME280;46464;51.154;13.812;2023-01-26T03:26:49;99825.44;;;-0.64;100.00
39105;BME280;46464;51.154;13.812;2023-01-26T03:29:34;99814.88;;;-0.66;100.00
39105;BME280;46464;51.154;13.812;2023-01-26T03:32:01;99822.78;;;-0.62;100.00
39105;BME280;46464;51.154;13.812;2023-01-26T03:34:27;99813.13;;;-0.60;100.00
39105;BME280;46464;51.154;13.812;2023-01-26T03:36:54;99811.38;;;-0.61;100.00
39105;BME280;46464;51.154;13.812;2023-01-26T03:39:21;99815.78;;;-0.59;100.00
39105;BME280;46464;51.154;13.812;2023-01-26T03:42:06;99818.41;;;-0.60;100.00
39105;BME280;46464;51.154;13.812;2023-01-26T03:44:51;99814.88;;;-0.61;100.00
39105;BME280;46464;51.154;13.812;2023-01-26T03:47:36;99812.25;;;-0.59;100.00
39105;BME280;46464;51.154;13.812;2023-01-26T03:50:21;99806.13;;;-0.54;100.00
39105;BME280;46464;51.154;13.812;2023-01-26T03:53:16;99806.09;;;-0.58;100.00
39105;BME280;46464;51.154;13.812;2023-01-26T03:56:01;99808.72;;;-0.58;100.00
39105;BME280;46464;51.154;13.812;2023-01-26T03:58:49;99803.47;;;-0.54;100.00
39105;BME280;46464;51.154;13.812;2023-01-26T04:01:17;99799.97;;;-0.53;100.00
39105;BME280;46464;51.154;13.812;2023-01-26T04:03:46;99799.06;;;-0.55;100.00
39105;BME280;46464;51.154;13.812;2023-01-26T04:06:32;99796.44;;;-0.56;100.00
39105;BME280;46464;51.154;13.812;2023-01-26T04:09:17;99793.78;;;-0.56;100.00
39105;BME280;46464;51.154;13.812;2023-01-26T04:11:44;99793.78;;;-0.55;100.00
39105;BME280;46464;51.154;13.812;2023-01-26T04:14:11;99792.06;;;-0.54;100.00
39105;BME280;46464;51.154;13.812;2023-01-26T04:17:00;99791.16;;;-0.56;100.00
39105;BME280;46464;51.154;13.812;2023-01-26T04:19:45;99783.19;;;-0.61;100.00
39105;BME280;46464;51.154;13.812;2023-01-26T04:22:30;99781.47;;;-0.62;100.00
39105;BME280;46464;51.154;13.812;2023-01-26T04:24:56;99781.47;;;-0.57;100.00
39105;BME280;46464;51.154;13.812;2023-01-26T04:27:22;99778.88;;;-0.46;100.00
39105;BME280;46464;51.154;13.812;2023-01-26T04:29:49;99775.38;;;-0.45;100.00
39105;BME280;46464;51.154;13.812;2023-01-26T04:32:15;99777.97;;;-0.50;100.00
39105;BME280;46464;51.154;13.812;2023-01-26T04:34:42;99777.94;;;-0.55;100.00
39105;BME280;46464;51.154;13.812;2023-01-26T04:37:08;99773.53;;;-0.57;100.00
39105;BME280;46464;51.154;13.812;2023-01-26T04:39:35;99764.75;;;-0.56;100.00
39105;BME280;46464;51.154;13.812;2023-01-26T04:42:02;99768.31;;;-0.50;100.00
39105;BME280;46464;51.154;13.812;2023-01-26T04:44:28;99769.19;;;-0.51;100.00
39105;BME280;46464;51.154;13.812;2023-01-26T04:46:54;99763.88;;;-0.52;100.00
39105;BME280;46464;51.154;13.812;2023-01-26T04:49:21;99758.63;;;-0.47;100.00
39105;BME280;46464;51.154;13.812;2023-01-26T04:51:47;99768.28;;;-0.53;100.00
39105;BME280;46464;51.154;13.812;2023-01-26T04:54:13;99763.03;;;-0.53;100.00
39105;BME280;46464;51.154;13.812;2023-01-26T04:56:40;99761.28;;;-0.51;100.00
39105;BME280;46464;51.154;13.812;2023-01-26T04:59:06;99763.88;;;-0.54;100.00
39105;BME280;46464;51.154;13.812;2023-01-26T05:01:33;99762.16;;;-0.53;100.00
39105;BME280;46464;51.154;13.812;2023-01-26T05:04:02;99770.94;;;-0.56;100.00
39105;BME280;46464;51.154;13.812;2023-01-26T05:06:28;99767.38;;;-0.62;100.00
39105;BME280;46464;51.154;13.812;2023-01-26T05:08:55;99775.28;;;-0.61;100.00
39105;BME280;46464;51.154;13.812;2023-01-26T05:11:22;99772.66;;;-0.62;100.00
39105;BME280;46464;51.154;13.812;2023-01-26T05:13:48;99769.13;;;-0.68;100.00
39105;BME280;46464;51.154;13.812;2023-01-26T05:16:15;99769.13;;;-0.65;100.00
39105;BME280;46464;51.154;13.812;2023-01-26T05:18:41;99776.16;;;-0.65;100.00
39105;BME280;46464;51.154;13.812;2023-01-26T05:21:09;99772.66;;;-0.64;100.00
39105;BME280;46464;51.154;13.812;2023-01-26T05:23:36;99773.56;;;-0.59;100.00
39105;BME280;46464;51.154;13.812;2023-01-26T05:26:02;99772.69;;;-0.58;100.00
39105;BME280;46464;51.154;13.812;2023-01-26T05:28:29;99777.97;;;-0.56;100.00
39105;BME280;46464;51.154;13.812;2023-01-26T05:30:55;99779.72;;;-0.54;100.00
39105;BME280;46464;51.154;13.812;2023-01-26T05:33:22;99777.94;;;-0.55;100.00
39105;BME280;46464;51.154;13.812;2023-01-26T05:35:48;99775.31;;;-0.55;100.00
39105;BME280;46464;51.154;13.812;2023-01-26T05:38:15;99774.47;;;-0.47;100.00
39105;BME280;46464;51.154;13.812;2023-01-26T05:40:41;99774.47;;;-0.46;100.00
39105;BME280;46464;51.154;13.812;2023-01-26T05:43:08;99774.50;;;-0.43;100.00
39105;BME280;46464;51.154;13.812;2023-01-26T05:45:35;99770.06;;;-0.49;100.00
39105;BME280;46464;51.154;13.812;2023-01-26T05:48:01;99767.44;;;-0.52;100.00
39105;BME280;46464;51.154;13.812;2023-01-26T05:50:28;99770.03;;;-0.55;100.00
39105;BME280;46464;51.154;13.812;2023-01-26T05:52:54;99766.50;;;-0.60;100.00
39105;BME280;46464;51.154;13.812;2023-01-26T05:55:21;99768.25;;;-0.67;100.00
39105;BME280;46464;51.154;13.812;2023-01-26T05:57:48;99764.72;;;-0.67;100.00
39105;BME280;46464;51.154;13.812;2023-01-26T06:00:14;99771.78;;;-0.63;100.00
39105;BME280;46464;51.154;13.812;2023-01-26T06:02:41;99770.91;;;-0.59;100.00
39105;BME280;46464;51.154;13.812;2023-01-26T06:05:07;99767.41;;;-0.59;100.00
39105;BME280;46464;51.154;13.812;2023-01-26T06:07:33;99764.72;;;-0.67;100.00
39105;BME280;46464;51.154;13.812;2023-01-26T06:10:00;99767.41;;;-0.56;100.00
39105;BME280;46464;51.154;13.812;2023-01-26T06:12:26;99777.94;;;-0.62;100.00
39105;BME280;46464;51.154;13.812;2023-01-26T06:15:01;99773.53;;;-0.63;100.00
39105;BME280;46464;51.154;13.812;2023-01-26T06:17:27;99779.72;;;-0.54;100.00
39105;BME280;46464;51.154;13.812;2023-01-26T06:19:54;99777.09;;;-0.57;100.00
39105;BME280;46464;51.154;13.812;2023-01-26T06:22:20;99776.22;;;-0.56;100.00
39105;BME280;46464;51.154;13.812;2023-01-26T06:24:46;99774.44;;;-0.57;100.00
39105;BME280;46464;51.154;13.812;2023-01-26T06:27:14;99785.84;;;-0.62;100.00
39105;BME280;46464;51.154;13.812;2023-01-26T06:29:41;99785.88;;;-0.59;100.00
39105;BME280;46464;51.154;13.812;2023-01-26T06:32:11;99777.97;;;-0.59;100.00
39105;BME280;46464;51.154;13.812;2023-01-26T06:34:38;99781.47;;;-0.57;100.00
39105;BME280;46464;51.154;13.812;2023-01-26T06:37:05;99777.94;;;-0.62;100.00
39105;BME280;46464;51.154;13.812;2023-01-26T06:39:32;99782.34;;;-0.60;100.00
39105;BME280;46464;51.154;13.812;2023-01-26T06:41:59;99771.75;;;-0.65;100.00
39105;BME280;46464;51.154;13.812;2023-01-26T06:44:25;99778.78;;;-0.70;100.00
39105;BME280;46464;51.154;13.812;2023-01-26T06:46:52;99776.13;;;-0.74;100.00
39105;BME280;46464;51.154;13.812;2023-01-26T06:49:18;99781.38;;;-0.76;100.00
39105;BME280;46464;51.154;13.812;2023-01-26T06:51:46;99774.38;;;-0.77;100.00
39105;BME280;46464;51.154;13.812;2023-01-26T06:54:13;99776.09;;;-0.76;100.00
39105;BME280;46464;51.154;13.812;2023-01-26T06:56:39;99771.69;;;-0.78;100.00
39105;BME280;46464;51.154;13.812;2023-01-26T06:59:06;99771.72;;;-0.77;100.00
39105;BME280;46464;51.154;13.812;2023-01-26T07:01:42;99777.88;;;-0.78;100.00
39105;BME280;46464;51.154;13.812;2023-01-26T07:04:09;99778.72;;;-0.76;100.00
39105;BME280;46464;51.154;13.812;2023-01-26T07:06:36;99776.13;;;-0.70;100.00
39105;BME280;46464;51.154;13.812;2023-01-26T07:09:04;99777.03;;;-0.66;100.00
39105;BME280;46464;51.154;13.812;2023-01-26T07:11:30;99773.56;;;-0.62;100.00
39105;BME280;46464;51.154;13.812;2023-01-26T07:13:58;99773.56;;;-0.59;100.00
39105;BME280;46464;51.154;13.812;2023-01-26T07:16:24;99770.88;;;-0.68;100.00
39105;BME280;46464;51.154;13.812;2023-01-26T07:18:51;99769.97;;;-0.70;100.00
39105;BME280;46464;51.154;13.812;2023-01-26T07:21:18;99774.38;;;-0.68;100.00
39105;BME280;46464;51.154;13.812;2023-01-26T07:23:44;99772.59;;;-0.73;100.00
39105;BME280;46464;51.154;13.812;2023-01-26T07:26:11;99771.72;;;-0.74;100.00
39105;BME280;46464;51.154;13.812;2023-01-26T07:28:37;99766.47;;;-0.71;100.00
39105;BME280;46464;51.154;13.812;2023-01-26T07:31:05;99769.94;;;-0.73;100.00
39105;BME280;46464;51.154;13.812;2023-01-26T07:33:32;99770.81;;;-0.77;100.00
39105;BME280;46464;51.154;13.812;2023-01-26T07:35:59;99769.13;;;-0.69;100.00
39105;BME280;46464;51.154;13.812;2023-01-26T07:38:26;99766.44;;;-0.74;100.00
39105;BME280;46464;51.154;13.812;2023-01-26T07:40:54;99766.44;;;-0.75;100.00
39105;BME280;46464;51.154;13.812;2023-01-26T07:43:21;99769.94;;;-0.76;100.00
39105;BME280;46464;51.154;13.812;2023-01-26T07:45:48;99771.72;;;-0.77;100.00
39105;BME280;46464;51.154;13.812;2023-01-26T07:48:17;99769.94;;;-0.73;100.00
39105;BME280;46464;51.154;13.812;2023-01-26T07:50:44;99769.13;;;-0.71;100.00
39105;BME280;46464;51.154;13.812;2023-01-26T07:53:10;99769.13;;;-0.71;100.00
39105;BME280;46464;51.154;13.812;2023-01-26T07:55:40;99770.84;;;-0.70;100.00
39105;BME280;46464;51.154;13.812;2023-01-26T07:58:09;99773.50;;;-0.74;100.00
39105;BME280;46464;51.154;13.812;2023-01-26T08:00:35;99774.34;;;-0.72;100.00
39105;BME280;46464;51.154;13.812;2023-01-26T08:03:02;99768.22;;;-0.70;100.00
39105;BME280;46464;51.154;13.812;2023-01-26T08:05:28;99771.75;;;-0.66;100.00
39105;BME280;46464;51.154;13.812;2023-01-26T08:07:58;99769.09;;;-0.74;100.00
39105;BME280;46464;51.154;13.812;2023-01-26T08:10:25;99767.34;;;-0.70;100.00
39105;BME280;46464;51.154;13.812;2023-01-26T08:12:52;99765.56;;;-0.71;100.00
39105;BME280;46464;51.154;13.812;2023-01-26T08:15:18;99763.84;;;-0.66;100.00
39105;BME280;46464;51.154;13.812;2023-01-26T08:17:44;99764.72;;;-0.69;100.00
39105;BME280;46464;51.154;13.812;2023-01-26T08:20:11;99767.34;;;-0.67;100.00
39105;BME280;46464;51.154;13.812;2023-01-26T08:22:39;99763.88;;;-0.63;100.00
39105;BME280;46464;51.154;13.812;2023-01-26T08:25:06;99751.59;;;-0.49;100.00
39105;BME280;46464;51.154;13.812;2023-01-26T08:27:32;99758.66;;;-0.44;100.00
39105;BME280;46464;51.154;13.812;2023-01-26T08:29:59;99763.06;;;-0.40;100.00
39105;BME280;46464;51.154;13.812;2023-01-26T08:32:25;99763.03;;;-0.48;100.00
39105;BME280;46464;51.154;13.812;2023-01-26T08:34:53;99764.81;;;-0.45;100.00
39105;BME280;46464;51.154;13.812;2023-01-26T08:37:20;99763.03;;;-0.46;100.00
39105;BME280;46464;51.154;13.812;2023-01-26T08:39:46;99757.72;;;-0.62;100.00
39105;BME280;46464;51.154;13.812;2023-01-26T08:42:13;99756.84;;;-0.56;100.00
39105;BME280;46464;51.154;13.812;2023-01-26T08:44:39;99756.84;;;-0.59;100.00
39105;BME280;46464;51.154;13.812;2023-01-26T08:47:05;99757.72;;;-0.60;100.00
39105;BME280;46464;51.154;13.812;2023-01-26T08:49:32;99755.09;;;-0.54;100.00
39105;BME280;46464;51.154;13.812;2023-01-26T08:51:58;99755.06;;;-0.57;100.00
39105;BME280;46464;51.154;13.812;2023-01-26T08:54:25;99753.34;;;-0.49;100.00
39105;BME280;46464;51.154;13.812;2023-01-26T08:56:51;99756.88;;;-0.50;100.00
39105;BME280;46464;51.154;13.812;2023-01-26T08:59:19;99763.91;;;-0.47;100.00
39105;BME280;46464;51.154;13.812;2023-01-26T09:01:47;99763.91;;;-0.46;100.00
39105;BME280;46464;51.154;13.812;2023-01-26T09:04:16;99762.19;;;-0.45;100.00
39105;BME280;46464;51.154;13.812;2023-01-26T09:06:42;99767.44;;;-0.52;100.00
39105;BME280;46464;51.154;13.812;2023-01-26T09:09:08;99763.03;;;-0.53;100.00
39105;BME280;46464;51.154;13.812;2023-01-26T09:11:38;99765.63;;;-0.59;100.00
39105;BME280;46464;51.154;13.812;2023-01-26T09:14:05;99768.25;;;-0.68;100.00
39105;BME280;46464;51.154;13.812;2023-01-26T09:16:31;99765.63;;;-0.62;100.00
39105;BME280;46464;51.154;13.812;2023-01-26T09:18:58;99775.28;;;-0.62;100.00
39105;BME280;46464;51.154;13.812;2023-01-26T09:21:24;99780.59;;;-0.58;100.00
39105;BME280;46464;51.154;13.812;2023-01-26T09:23:51;99787.63;;;-0.63;100.00
39105;BME280;46464;51.154;13.812;2023-01-26T09:26:17;99786.75;;;-0.62;100.00
39105;BME280;46464;51.154;13.812;2023-01-26T09:28:44;99776.19;;;-0.59;100.00
39105;BME280;46464;51.154;13.812;2023-01-26T09:31:10;99780.56;;;-0.64;100.00
39105;BME280;46464;51.154;13.812;2023-01-26T09:33:37;99779.66;;;-0.65;100.00
39105;BME280;46464;51.154;13.812;2023-01-26T09:36:07;99787.63;;;-0.60;100.00
39105;BME280;46464;51.154;13.812;2023-01-26T09:38:34;99788.50;;;-0.56;100.00
39105;BME280;46464;51.154;13.812;2023-01-26T09:43:43;99786.75;;;-0.62;100.00
39105;BME280;46464;51.154;13.812;2023-01-26T09:51:33;99782.31;;;-0.65;100.00
39105;BME280;46464;51.154;13.812;2023-01-26T09:54:03;99785.88;;;-0.55;100.00
39105;BME280;46464;51.154;13.812;2023-01-26T09:56:30;99792.91;;;-0.57;100.00
39105;BME280;46464;51.154;13.812;2023-01-26T09:59:13;99776.22;;;-0.56;100.00
39105;BME280;46464;51.154;13.812;2023-01-26T10:01:46;99787.66;;;-0.57;100.00
39105;BME280;46464;51.154;13.812;2023-01-26T10:06:55;99787.66;;;-0.57;100.00
39105;BME280;46464;51.154;13.812;2023-01-26T10:09:24;99782.34;;;-0.58;100.00
39105;BME280;46464;51.154;13.812;2023-01-26T10:11:57;99785.84;;;-0.62;100.00
39105;BME280;46464;51.154;13.812;2023-01-26T10:14:44;99782.34;;;-0.60;100.00
39105;BME280;46464;51.154;13.812;2023-01-26T10:17:13;99772.69;;;-0.56;100.00
39105;BME280;46464;51.154;13.812;2023-01-26T10:19:44;99783.25;;;-0.53;100.00
39105;BME280;46464;51.154;13.812;2023-01-26T10:22:15;99774.41;;;-0.61;100.00
39105;BME280;46464;51.154;13.812;2023-01-26T10:24:44;99773.56;;;-0.54;100.00
39105;BME280;46464;51.154;13.812;2023-01-26T10:27:12;99769.16;;;-0.54;100.00
39105;BME280;46464;51.154;13.812;2023-01-26T10:29:40;99769.16;;;-0.57;100.00
39105;BME280;46464;51.154;13.812;2023-01-26T10:32:12;99768.28;;;-0.60;100.00
39105;BME280;46464;51.154;13.812;2023-01-26T10:34:40;99775.25;;;-0.67;100.00
39105;BME280;46464;51.154;13.812;2023-01-26T10:37:25;99763.84;;;-0.68;100.00
39105;BME280;46464;51.154;13.812;2023-01-26T10:40:00;99765.59;;;-0.63;100.00
39105;BME280;46464;51.154;13.812;2023-01-26T10:42:28;99767.38;;;-0.64;100.00
39105;BME280;46464;51.154;13.812;2023-01-26T10:44:55;99762.06;;;-0.70;100.00
39105;BME280;46464;51.154;13.812;2023-01-26T10:47:25;99759.44;;;-0.70;100.00
39105;BME280;46464;51.154;13.812;2023-01-26T10:50:06;99762.03;;;-0.78;100.00
39105;BME280;46464;51.154;13.812;2023-01-26T10:52:38;99761.19;;;-0.69;100.00
39105;BME280;46464;51.154;13.812;2023-01-26T10:55:21;99754.19;;;-0.61;100.00
39105;BME280;46464;51.154;13.812;2023-01-26T10:57:47;99762.13;;;-0.58;100.00
39105;BME280;46464;51.154;13.812;2023-01-26T11:02:48;99753.28;;;-0.68;100.00
39105;BME280;46464;51.154;13.812;2023-01-26T11:05:22;99742.75;;;-0.61;100.00
39105;BME280;46464;51.154;13.812;2023-01-26T11:07:51;99739.22;;;-0.67;100.00
39105;BME280;46464;51.154;13.812;2023-01-26T11:10:33;99750.66;;;-0.66;100.00
39105;BME280;46464;51.154;13.812;2023-01-26T11:13:14;99747.13;;;-0.63;100.00
39105;BME280;46464;51.154;13.812;2023-01-26T11:21:28;99743.63;;;-0.64;100.00
39105;BME280;46464;51.154;13.812;2023-01-26T11:24:03;99742.72;;;-0.65;100.00
39105;BME280;46464;51.154;13.812;2023-01-26T11:26:40;99740.09;;;-0.69;100.00
39105;BME280;46464;51.154;13.812;2023-01-26T11:29:16;99739.22;;;-0.68;100.00
39105;BME280;46464;51.154;13.812;2023-01-26T11:32:03;99733.91;;;-0.70;100.00
39105;BME280;46464;51.154;13.812;2023-01-26T11:39:39;99728.66;;;-0.65;100.00
39105;BME280;46464;51.154;13.812;2023-01-26T11:57:45;99705.81;;;-0.63;100.00
39105;BME280;46464;51.154;13.812;2023-01-26T12:00:16;99705.78;;;-0.69;100.00
39105;BME280;46464;51.154;13.812;2023-01-26T12:02:58;99703.16;;;-0.68;100.00
39105;BME280;46464;51.154;13.812;2023-01-26T12:05:32;99696.13;;;-0.66;100.00
39105;BME280;46464;51.154;13.812;2023-01-26T12:08:01;99688.22;;;-0.55;100.00
39105;BME280;46464;51.154;13.812;2023-01-26T12:10:32;99697.91;;;-0.57;100.00
39105;BME280;46464;51.154;13.812;2023-01-26T12:13:04;99691.75;;;-0.62;100.00
39105;BME280;46464;51.154;13.812;2023-01-26T12:15:33;99682.06;;;-0.63;100.00
39105;BME280;46464;51.154;13.812;2023-01-26T12:18:05;99682.97;;;-0.59;100.00
39105;BME280;46464;51.154;13.812;2023-01-26T12:20:38;99673.28;;;-0.54;100.00
39105;BME280;46464;51.154;13.812;2023-01-26T12:23:14;99666.22;;;-0.58;100.00
39105;BME280;46464;51.154;13.812;2023-01-26T12:25:43;99663.63;;;-0.55;100.00
39105;BME280;46464;51.154;13.812;2023-01-26T12:30:52;99663.59;;;-0.63;100.00
39105;BME280;46464;51.154;13.812;2023-01-26T12:33:20;99667.13;;;-0.66;100.00
39105;BME280;46464;51.154;13.812;2023-01-26T12:38:27;99675.88;;;-0.70;100.00
39105;BME280;46464;51.154;13.812;2023-01-26T12:46:15;99659.22;;;-0.56;100.00
39105;BME280;46464;51.154;13.812;2023-01-26T12:48:47;99659.22;;;-0.56;100.00
39105;BME280;46464;51.154;13.812;2023-01-26T12:58:47;99635.47;;;-0.52;100.00
39105;BME280;46464;51.154;13.812;2023-01-26T13:01:15;99631.06;;;-0.57;100.00
39105;BME280;46464;51.154;13.812;2023-01-26T13:03:53;99635.44;;;-0.55;100.00
39105;BME280;46464;51.154;13.812;2023-01-26T13:06:21;99640.72;;;-0.56;100.00
39105;BME280;46464;51.154;13.812;2023-01-26T13:08:50;99631.94;;;-0.61;100.00
39105;BME280;46464;51.154;13.812;2023-01-26T13:16:48;99655.66;;;-0.66;100.00
39105;BME280;46464;51.154;13.812;2023-01-26T13:22:00;99644.25;;;-0.62;100.00
39105;BME280;46464;51.154;13.812;2023-01-26T13:26:54;99643.38;;;-0.64;100.00
39105;BME280;46464;51.154;13.812;2023-01-26T13:31:55;99637.19;;;-0.71;100.00
39105;BME280;46464;51.154;13.812;2023-01-26T13:34:40;99639.84;;;-0.68;100.00
39105;BME280;46464;51.154;13.812;2023-01-26T13:37:09;99634.53;;;-0.72;100.00
39105;BME280;46464;51.154;13.812;2023-01-26T13:39:37;99634.53;;;-0.82;100.00
39105;BME280;46464;51.154;13.812;2023-01-26T13:42:16;99642.44;;;-0.83;100.00
39105;BME280;46464;51.154;13.812;2023-01-26T13:44:48;99643.31;;;-0.73;100.00
39105;BME280;46464;51.154;13.812;2023-01-26T13:47:18;99640.72;;;-0.72;100.00
39105;BME280;46464;51.154;13.812;2023-01-26T13:49:47;99639.81;;;-0.75;100.00
39105;BME280;46464;51.154;13.812;2023-01-26T13:52:22;99652.09;;;-0.76;100.00
39105;BME280;46464;51.154;13.812;2023-01-26T13:54:51;99649.47;;;-0.80;100.00
39105;BME280;46464;51.154;13.812;2023-01-26T13:57:22;99645.13;;;-0.71;100.00
39105;BME280;46464;51.154;13.812;2023-01-26T13:59:49;99652.16;;;-0.65;100.00
39105;BME280;46464;51.154;13.812;2023-01-26T14:02:23;99639.81;;;-0.72;100.00
39105;BME280;46464;51.154;13.812;2023-01-26T14:04:51;99637.16;;;-0.78;100.00
39105;BME280;46464;51.154;13.812;2023-01-26T14:07:18;99632.75;;;-0.81;100.00
39105;BME280;46464;51.154;13.812;2023-01-26T14:09:46;99630.13;;;-0.76;100.00
39105;BME280;46464;51.154;13.812;2023-01-26T14:12:15;99639.81;;;-0.82;100.00
39105;BME280;46464;51.154;13.812;2023-01-26T14:14:44;99635.41;;;-0.76;100.00